createdAt,value
2022-11-29T00:01:34.709Z,50.07
2022-11-29T00:04:03.142Z,40.97
2022-11-29T00:06:33.891Z,44.63
2022-11-29T00:09:03.460Z,52.00
2022-11-29T00:11:53.168Z,36.33
2022-11-29T00:14:21.996Z,40.87
2022-11-29T00:16:52.828Z,39.50
2022-11-29T00:19:20.793Z,34.63
2022-11-29T00:21:48.658Z,31.37
2022-11-29T00:24:16.505Z,44.77
2022-11-29T00:26:45.708Z,36.03
2022-11-29T00:29:14.131Z,34.17
2022-11-29T00:31:42.525Z,40.10
2022-11-29T00:34:13.033Z,37.90
2022-11-29T00:36:41.231Z,35.37
2022-11-29T00:39:11.579Z,32.10
2022-11-29T00:41:40.009Z,30.60
2022-11-29T00:44:09.537Z,36.63
2022-11-29T00:46:37.758Z,37.13
2022-11-29T00:49:06.394Z,41.50
2022-11-29T00:51:34.689Z,30.97
2022-11-29T00:54:02.601Z,38.03
2022-11-29T00:56:30.504Z,30.27
2022-11-29T00:58:58.672Z,32.77
2022-11-29T01:01:27.979Z,31.47
2022-11-29T01:03:55.837Z,30.57
2022-11-29T01:06:23.670Z,28.53
2022-11-29T01:08:51.561Z,33.47
2022-11-29T01:11:21.424Z,45.70
2022-11-29T01:13:50.700Z,39.93
2022-11-29T01:16:19.133Z,51.90
2022-11-29T01:18:48.596Z,66.73
2022-11-29T01:21:18.747Z,63.30
2022-11-29T01:23:47.437Z,40.90
2022-11-29T01:26:17.238Z,58.93
2022-11-29T01:28:47.381Z,60.50
2022-11-29T01:31:18.756Z,63.97
2022-11-29T01:33:48.554Z,59.50
2022-11-29T01:36:16.450Z,62.03
2022-11-29T01:38:44.306Z,43.37
2022-11-29T01:41:15.442Z,37.73
2022-11-29T01:43:58.842Z,41.70
2022-11-29T01:46:28.119Z,61.23
2022-11-29T01:49:02.510Z,45.67
2022-11-29T01:51:31.717Z,48.20
2022-11-29T01:53:59.850Z,53.07
2022-11-29T01:56:29.941Z,39.13
2022-11-29T01:58:58.176Z,53.63
2022-11-29T02:01:26.950Z,40.77
2022-11-29T02:03:55.071Z,34.67
2022-11-29T02:06:24.872Z,50.10
2022-11-29T02:08:52.740Z,58.13
2022-11-29T02:11:43.069Z,44.33
2022-11-29T02:14:24.700Z,43.70
2022-11-29T02:17:02.377Z,54.23
2022-11-29T02:20:00.860Z,31.53
2022-11-29T02:22:34.193Z,39.03
2022-11-29T02:25:18.816Z,61.07
2022-11-29T02:28:34.844Z,40.17
2022-11-29T02:31:31.072Z,34.30
2022-11-29T02:34:14.671Z,30.50
2022-11-29T02:37:11.868Z,37.03
2022-11-29T02:39:53.497Z,39.60
2022-11-29T02:42:55.720Z,36.57
2022-11-29T02:45:44.847Z,45.97
2022-11-29T02:48:27.296Z,38.80
2022-11-29T02:51:03.609Z,79.07
2022-11-29T02:53:38.658Z,47.30
2022-11-29T02:56:13.128Z,35.47
2022-11-29T02:58:50.121Z,29.87
2022-11-29T03:01:23.899Z,42.10
2022-11-29T03:04:00.994Z,34.13
2022-11-29T03:06:40.189Z,35.93
2022-11-29T03:09:17.437Z,40.33
2022-11-29T03:11:51.653Z,31.90
2022-11-29T03:14:25.905Z,31.37
2022-11-29T03:17:06.014Z,41.50
2022-11-29T03:19:52.954Z,43.13
2022-11-29T03:22:36.183Z,39.47
2022-11-29T03:25:10.199Z,47.63
2022-11-29T03:27:42.225Z,45.13
2022-11-29T03:30:12.772Z,45.30
2022-11-29T03:32:49.537Z,41.73
2022-11-29T03:35:23.306Z,117.77
2022-11-29T03:37:59.606Z,130.93
2022-11-29T03:40:34.153Z,65.07
2022-11-29T03:43:05.189Z,60.80
2022-11-29T03:45:39.826Z,123.13
2022-11-29T03:48:12.480Z,43.00
2022-11-29T03:50:44.256Z,50.37
2022-11-29T03:53:18.725Z,46.37
2022-11-29T03:55:51.330Z,46.97
2022-11-29T03:58:44.798Z,91.73
2022-11-29T04:01:46.106Z,47.40
2022-11-29T04:04:54.828Z,157.83
2022-11-29T04:07:51.429Z,80.80
2022-11-29T04:10:35.920Z,119.23
2022-11-29T04:13:37.010Z,129.37
2022-11-29T04:16:56.602Z,108.37
2022-11-29T04:20:00.301Z,146.17
2022-11-29T04:22:44.323Z,300.90
2022-11-29T04:25:37.265Z,233.67
2022-11-29T04:28:24.950Z,188.93
2022-11-29T04:31:02.019Z,252.50
2022-11-29T04:33:58.148Z,239.57
2022-11-29T04:36:47.426Z,139.73
2022-11-29T04:39:36.342Z,124.07
2022-11-29T04:42:32.581Z,85.20
2022-11-29T04:45:35.254Z,267.83
2022-11-29T04:48:18.559Z,270.73
2022-11-29T04:50:58.236Z,304.53
2022-11-29T04:53:38.523Z,125.70
2022-11-29T04:56:14.498Z,136.90
2022-11-29T04:58:52.772Z,277.30
2022-11-29T05:01:27.539Z,154.10
2022-11-29T05:04:03.844Z,207.90
2022-11-29T05:06:40.050Z,119.93
2022-11-29T05:09:14.620Z,71.17
2022-11-29T05:11:58.752Z,83.23
2022-11-29T05:14:41.775Z,76.57
2022-11-29T05:17:31.368Z,106.40
2022-11-29T05:20:25.161Z,92.63
2022-11-29T05:23:06.454Z,148.90
2022-11-29T05:25:47.131Z,179.33
2022-11-29T05:28:21.880Z,125.57
2022-11-29T05:31:10.389Z,209.20
2022-11-29T05:34:00.050Z,235.77
2022-11-29T05:36:39.931Z,124.07
2022-11-29T05:39:22.147Z,131.53
2022-11-29T05:42:02.269Z,77.03
2022-11-29T05:44:36.626Z,117.07
2022-11-29T05:47:09.986Z,147.30
2022-11-29T05:49:45.328Z,183.27
2022-11-29T05:52:25.605Z,172.40
2022-11-29T05:55:11.040Z,68.97
2022-11-29T05:57:44.573Z,115.33
2022-11-29T06:00:14.712Z,73.83
2022-11-29T06:02:54.960Z,99.40
2022-11-29T06:05:32.296Z,152.80
2022-11-29T06:08:06.908Z,93.40
2022-11-29T06:10:39.863Z,67.60
2022-11-29T06:13:19.662Z,153.00
2022-11-29T06:16:22.692Z,164.50
2022-11-29T06:19:18.904Z,117.30
2022-11-29T06:21:59.955Z,87.90
2022-11-29T06:24:42.324Z,116.43
2022-11-29T06:27:25.736Z,116.50
2022-11-29T06:30:03.106Z,118.07
2022-11-29T06:32:37.374Z,160.77
2022-11-29T06:35:13.123Z,140.03
2022-11-29T06:37:44.433Z,212.07
2022-11-29T06:40:15.798Z,211.70
2022-11-29T06:42:43.918Z,232.00
2022-11-29T06:45:14.685Z,213.43
2022-11-29T06:47:46.483Z,211.60
2022-11-29T06:50:33.718Z,69.47
2022-11-29T06:53:07.695Z,84.23
2022-11-29T06:55:45.124Z,220.87
2022-11-29T06:58:35.659Z,104.43
2022-11-29T07:01:18.411Z,123.50
2022-11-29T07:04:05.882Z,132.07
2022-11-29T07:06:36.513Z,117.83
2022-11-29T07:09:14.263Z,88.77
2022-11-29T07:11:43.393Z,106.27
2022-11-29T07:14:11.625Z,69.53
2022-11-29T07:16:54.423Z,68.67
2022-11-29T07:19:34.237Z,74.97
2022-11-29T07:22:17.566Z,76.90
2022-11-29T07:24:56.893Z,133.77
2022-11-29T07:27:30.669Z,82.70
2022-11-29T07:30:10.583Z,76.13
2022-11-29T07:32:54.722Z,77.73
2022-11-29T07:35:34.039Z,63.10
2022-11-29T07:38:14.347Z,87.87
2022-11-29T07:40:51.756Z,85.93
2022-11-29T07:43:28.295Z,100.00
2022-11-29T07:45:57.097Z,73.50
2022-11-29T07:48:24.949Z,72.23
2022-11-29T07:50:52.857Z,73.77
2022-11-29T07:53:23.790Z,87.80
2022-11-29T07:55:52.129Z,90.13
2022-11-29T07:58:20.343Z,111.57
2022-11-29T08:00:48.288Z,83.87
2022-11-29T08:03:16.184Z,74.53
2022-11-29T08:05:47.237Z,262.73
2022-11-29T08:08:15.573Z,81.60
2022-11-29T08:10:44.856Z,77.83
2022-11-29T08:13:12.931Z,98.57
2022-11-29T08:15:45.757Z,175.30
2022-11-29T08:18:13.786Z,121.60
2022-11-29T08:20:42.200Z,102.87
2022-11-29T08:23:12.301Z,83.83
2022-11-29T08:25:40.517Z,139.83
2022-11-29T08:28:09.944Z,114.67
2022-11-29T08:30:37.873Z,81.80
2022-11-29T08:33:05.975Z,130.73
2022-11-29T08:35:35.943Z,77.30
2022-11-29T08:38:04.961Z,94.20
2022-11-29T08:40:32.917Z,46.57
2022-11-29T08:43:00.870Z,183.03
2022-11-29T08:45:30.221Z,90.57
2022-11-29T08:47:58.162Z,76.77
2022-11-29T08:50:26.006Z,92.70
2022-11-29T08:53:11.663Z,97.87
2022-11-29T08:55:42.869Z,73.57
2022-11-29T08:58:14.093Z,114.13
2022-11-29T09:00:45.993Z,131.87
2022-11-29T09:03:31.712Z,145.17
2022-11-29T09:05:59.581Z,142.00
2022-11-29T09:08:27.452Z,97.70
2022-11-29T09:10:55.290Z,117.23
2022-11-29T09:13:23.207Z,124.57
2022-11-29T09:15:52.588Z,65.00
2022-11-29T09:18:20.447Z,132.63
2022-11-29T09:20:48.298Z,97.27
2022-11-29T09:23:16.132Z,128.33
2022-11-29T09:25:49.293Z,174.40
2022-11-29T09:28:17.256Z,179.93
2022-11-29T09:30:45.226Z,160.03
2022-11-29T09:33:14.408Z,158.57
2022-11-29T09:35:42.428Z,177.20
2022-11-29T09:38:12.547Z,90.80
2022-11-29T09:40:46.630Z,231.03
2022-11-29T09:43:24.735Z,173.53
2022-11-29T09:46:01.055Z,175.30
2022-11-29T09:48:56.646Z,255.17
2022-11-29T09:51:31.104Z,182.97
2022-11-29T09:54:18.680Z,180.93
2022-11-29T09:56:49.872Z,121.53
2022-11-29T09:59:22.753Z,153.87
2022-11-29T10:01:57.763Z,138.43
2022-11-29T10:04:31.048Z,139.67
2022-11-29T10:07:05.525Z,274.40
2022-11-29T10:09:38.095Z,130.70
2022-11-29T10:12:14.754Z,155.47
2022-11-29T10:14:48.709Z,95.53
2022-11-29T10:17:27.526Z,126.93
2022-11-29T10:20:00.418Z,132.07
2022-11-29T10:22:36.138Z,171.93
2022-11-29T10:25:06.150Z,118.10
2022-11-29T10:27:42.386Z,128.53
2022-11-29T10:30:16.114Z,112.00
2022-11-29T10:32:47.285Z,132.60
2022-11-29T10:35:19.068Z,105.13
2022-11-29T10:38:07.584Z,116.30
2022-11-29T10:40:36.982Z,162.50
2022-11-29T10:43:05.285Z,120.00
2022-11-29T10:45:37.524Z,58.07
2022-11-29T10:48:07.672Z,85.93
2022-11-29T10:50:38.177Z,64.77
2022-11-29T10:53:10.157Z,103.43
2022-11-29T10:55:42.734Z,58.50
2022-11-29T10:58:16.360Z,147.43
2022-11-29T11:01:06.490Z,90.60
2022-11-29T11:03:38.518Z,83.57
2022-11-29T11:06:16.454Z,103.70
2022-11-29T11:08:46.748Z,78.43
2022-11-29T11:11:15.971Z,67.50
2022-11-29T11:13:43.885Z,67.53
2022-11-29T11:16:18.013Z,47.67
2022-11-29T11:18:47.052Z,101.00
2022-11-29T11:21:19.340Z,54.40
2022-11-29T11:23:56.427Z,89.77
2022-11-29T11:26:25.550Z,51.93
2022-11-29T11:28:57.854Z,57.30
2022-11-29T11:31:32.502Z,47.10
2022-11-29T11:34:25.880Z,75.63
2022-11-29T11:36:56.541Z,50.57
2022-11-29T11:39:25.001Z,49.57
2022-11-29T11:42:10.966Z,43.40
2022-11-29T11:44:49.555Z,40.17
2022-11-29T11:47:20.090Z,59.17
2022-11-29T11:49:50.213Z,37.90
2022-11-29T11:52:23.046Z,63.30
2022-11-29T11:54:55.316Z,49.07
2022-11-29T11:57:24.722Z,60.23
2022-11-29T11:59:54.123Z,46.73
2022-11-29T12:02:29.861Z,62.60
2022-11-29T12:05:01.502Z,37.37
2022-11-29T12:08:06.302Z,65.00
2022-11-29T12:10:25.835Z,47.67
2022-11-29T12:12:55.863Z,38.90
2022-11-29T12:15:26.690Z,37.43
2022-11-29T12:18:02.842Z,39.53
2022-11-29T12:20:34.949Z,36.80
2022-11-29T12:23:24.126Z,62.23
2022-11-29T12:25:57.467Z,46.20
2022-11-29T12:28:29.862Z,40.10
2022-11-29T12:31:05.501Z,45.27
2022-11-29T12:33:44.079Z,38.90
2022-11-29T12:36:26.977Z,58.93
2022-11-29T12:39:12.063Z,56.10
2022-11-29T12:41:54.005Z,65.73
2022-11-29T12:44:40.904Z,45.40
2022-11-29T12:50:30.878Z,38.87
2022-11-29T12:53:12.047Z,41.67
2022-11-29T12:55:50.568Z,35.97
2022-11-29T12:58:24.972Z,37.03
2022-11-29T13:01:07.149Z,38.10
2022-11-29T13:03:43.395Z,45.50
2022-11-29T13:06:23.133Z,44.30
2022-11-29T13:09:18.537Z,41.37
2022-11-29T13:11:55.761Z,58.60
2022-11-29T13:14:46.152Z,48.60
2022-11-29T13:17:25.801Z,41.17
2022-11-29T13:19:57.657Z,56.23
2022-11-29T13:22:30.118Z,39.80
2022-11-29T13:25:02.337Z,42.70
2022-11-29T13:27:36.058Z,50.90
2022-11-29T13:30:05.437Z,53.83
2022-11-29T13:32:37.372Z,64.07
2022-11-29T13:35:12.894Z,57.90
2022-11-29T13:37:54.813Z,55.63
2022-11-29T13:40:32.760Z,61.73
2022-11-29T13:43:12.909Z,63.07
2022-11-29T13:45:45.400Z,46.20
2022-11-29T13:48:34.025Z,42.73
2022-11-29T13:51:33.557Z,59.00
2022-11-29T13:54:04.097Z,50.83
2022-11-29T13:56:42.807Z,49.13
2022-11-29T13:59:20.059Z,45.67
2022-11-29T14:01:50.369Z,43.67
2022-11-29T14:04:33.695Z,48.57
2022-11-29T14:07:10.816Z,35.03
2022-11-29T14:09:48.370Z,41.80
2022-11-29T14:12:39.656Z,34.10
2022-11-29T14:15:22.053Z,47.97
2022-11-29T14:17:53.228Z,35.10
2022-11-29T14:20:58.262Z,36.43
2022-11-29T14:23:35.354Z,36.73
2022-11-29T14:26:29.849Z,30.30
2022-11-29T14:28:58.953Z,39.33
2022-11-29T14:31:51.478Z,46.67
2022-11-29T14:34:44.016Z,45.70
2022-11-29T14:37:43.559Z,48.90
2022-11-29T14:40:26.914Z,33.30
2022-11-29T14:42:55.062Z,43.03
2022-11-29T14:45:28.345Z,38.90
2022-11-29T14:47:58.198Z,50.20
2022-11-29T14:50:36.089Z,42.23
2022-11-29T14:53:05.457Z,34.20
2022-11-29T14:55:36.655Z,38.30
2022-11-29T14:58:23.264Z,63.43
2022-11-29T15:01:09.725Z,38.60
2022-11-29T15:03:48.731Z,44.30
2022-11-29T15:06:25.075Z,47.23
2022-11-29T15:09:01.637Z,40.57
2022-11-29T15:11:47.947Z,53.93
2022-11-29T15:14:24.067Z,45.50
2022-11-29T15:17:05.533Z,37.50
2022-11-29T15:20:06.638Z,43.33
2022-11-29T15:22:46.767Z,41.93
2022-11-29T15:25:19.405Z,28.23
2022-11-29T15:27:52.197Z,34.10
2022-11-29T15:30:22.397Z,31.10
2022-11-29T15:32:50.774Z,42.00
2022-11-29T15:35:20.761Z,34.53
2022-11-29T15:37:50.010Z,41.83
2022-11-29T15:40:20.165Z,37.07
2022-11-29T15:42:52.710Z,37.33
2022-11-29T15:45:33.620Z,30.97
2022-11-29T15:48:18.562Z,35.07
2022-11-29T15:51:03.523Z,50.67
2022-11-29T15:53:36.602Z,47.03
2022-11-29T15:56:12.091Z,40.87
2022-11-29T15:58:40.466Z,36.53
2022-11-29T16:01:09.129Z,48.83
2022-11-29T16:03:41.419Z,48.63
2022-11-29T16:06:22.769Z,41.83
2022-11-29T16:08:51.769Z,43.50
2022-11-29T16:11:23.500Z,35.67
2022-11-29T16:14:17.738Z,43.70
2022-11-29T16:16:47.992Z,46.77
2022-11-29T16:19:31.206Z,37.70
2022-11-29T16:22:16.665Z,38.73
2022-11-29T16:24:53.860Z,40.87
2022-11-29T16:27:23.676Z,37.30
2022-11-29T16:29:54.948Z,36.90
2022-11-29T16:32:29.133Z,49.53
2022-11-29T16:34:59.063Z,42.93
2022-11-29T16:37:32.005Z,35.70
2022-11-29T16:40:02.387Z,31.87
2022-11-29T16:42:32.613Z,36.07
2022-11-29T16:45:32.619Z,37.47
2022-11-29T16:48:01.568Z,36.30
2022-11-29T16:50:30.642Z,35.87
2022-11-29T16:53:36.666Z,35.83
2022-11-29T16:56:05.769Z,60.97
2022-11-29T16:58:37.555Z,52.20
2022-11-29T17:01:17.816Z,35.57
2022-11-29T17:03:46.050Z,45.23
2022-11-29T17:06:15.639Z,37.57
2022-11-29T17:08:46.249Z,50.87
2022-11-29T17:11:14.341Z,40.80
2022-11-29T17:13:42.233Z,41.23
2022-11-29T17:16:14.462Z,39.63
2022-11-29T17:18:43.226Z,55.43
2022-11-29T17:21:18.349Z,51.87
2022-11-29T17:23:47.961Z,40.43
2022-11-29T17:26:16.354Z,39.97
2022-11-29T17:28:45.437Z,41.87
2022-11-29T17:31:15.190Z,52.00
2022-11-29T17:33:43.311Z,51.60
2022-11-29T17:36:15.178Z,38.27
2022-11-29T17:38:43.861Z,41.40
2022-11-29T17:41:14.692Z,39.43
2022-11-29T17:43:42.924Z,40.57
2022-11-29T17:46:12.068Z,37.80
2022-11-29T17:48:40.370Z,34.40
2022-11-29T17:51:22.810Z,45.40
2022-11-29T17:54:00.437Z,37.60
2022-11-29T17:56:30.338Z,45.07
2022-11-29T17:59:00.396Z,37.90
2022-11-29T18:01:30.322Z,53.07
2022-11-29T18:04:00.050Z,51.30
2022-11-29T18:06:29.498Z,45.07
2022-11-29T18:08:59.171Z,37.80
2022-11-29T18:11:30.596Z,38.90
2022-11-29T18:13:59.353Z,41.07
2022-11-29T18:16:29.175Z,30.80
2022-11-29T18:18:58.863Z,46.47
2022-11-29T18:21:27.556Z,34.20
2022-11-29T18:23:55.722Z,39.07
2022-11-29T18:26:25.281Z,34.93
2022-11-29T18:28:54.694Z,37.20
2022-11-29T18:31:24.574Z,38.93
2022-11-29T18:33:54.811Z,44.13
2022-11-29T18:36:24.363Z,47.13
2022-11-29T18:38:56.666Z,39.17
2022-11-29T18:41:25.526Z,48.87
2022-11-29T18:44:00.033Z,45.70
2022-11-29T18:46:32.163Z,36.13
2022-11-29T18:49:01.031Z,34.20
2022-11-29T18:51:29.982Z,48.57
2022-11-29T18:53:57.958Z,46.23
2022-11-29T18:56:28.161Z,38.33
2022-11-29T18:58:59.081Z,38.07
2022-11-29T19:01:28.574Z,38.23
2022-11-29T19:03:59.289Z,52.83
2022-11-29T19:06:31.709Z,36.80
2022-11-29T19:09:04.244Z,34.67
2022-11-29T19:11:34.173Z,34.70
2022-11-29T19:14:05.387Z,36.43
2022-11-29T19:16:35.253Z,38.53
2022-11-29T19:19:03.190Z,36.93
2022-11-29T19:21:34.279Z,42.53
2022-11-29T19:24:03.870Z,40.13
2022-11-29T19:26:33.476Z,34.57
2022-11-29T19:29:03.331Z,37.93
2022-11-29T19:31:31.292Z,44.00
2022-11-29T19:33:59.393Z,37.87
2022-11-29T19:36:29.199Z,38.73
2022-11-29T19:38:57.812Z,36.53
2022-11-29T19:41:27.790Z,48.23
2022-11-29T19:43:58.025Z,38.43
2022-11-29T19:46:29.380Z,37.70
2022-11-29T19:48:58.784Z,41.63
2022-11-29T19:51:28.069Z,40.83
2022-11-29T19:53:57.680Z,42.90
2022-11-29T19:56:26.092Z,45.87
2022-11-29T19:58:55.137Z,37.73
2022-11-29T20:01:25.203Z,39.17
2022-11-29T20:03:56.419Z,24.83
2022-11-29T20:06:24.535Z,25.10
2022-11-29T20:08:52.514Z,26.27
2022-11-29T20:11:22.475Z,25.00
2022-11-29T20:13:54.654Z,32.70
2022-11-29T20:16:23.572Z,24.57
2022-11-29T20:18:54.028Z,31.57
2022-11-29T20:21:24.434Z,22.80
2022-11-29T20:23:56.221Z,29.23
2022-11-29T20:26:24.333Z,31.50
2022-11-29T20:28:52.454Z,25.70
2022-11-29T20:31:23.179Z,21.03
2022-11-29T20:33:53.193Z,41.13
2022-11-29T20:36:34.479Z,24.77
2022-11-29T20:39:14.798Z,27.77
2022-11-29T20:41:51.316Z,26.60
2022-11-29T20:44:22.098Z,26.03
2022-11-29T20:46:50.327Z,22.83
2022-11-29T20:49:18.783Z,20.90
2022-11-29T20:51:56.325Z,26.20
2022-11-29T20:54:24.286Z,28.80
2022-11-29T20:56:52.161Z,40.53
2022-11-29T20:59:20.031Z,32.50
2022-11-29T21:01:47.871Z,31.60
2022-11-29T21:04:20.147Z,35.50
2022-11-29T21:06:52.209Z,32.83
2022-11-29T21:09:20.071Z,35.20
2022-11-29T21:11:48.466Z,45.40
2022-11-29T21:14:16.821Z,43.97
2022-11-29T21:16:45.113Z,66.63
2022-11-29T21:19:19.246Z,60.57
2022-11-29T21:22:02.388Z,67.47
2022-11-29T21:24:39.748Z,48.33
2022-11-29T21:27:12.141Z,53.10
2022-11-29T21:29:40.661Z,74.80
2022-11-29T21:32:19.414Z,50.23
2022-11-29T21:34:47.676Z,61.07
2022-11-29T21:37:18.490Z,89.33
2022-11-29T21:39:47.385Z,66.03
2022-11-29T21:42:15.269Z,64.70
2022-11-29T21:44:44.741Z,64.73
2022-11-29T21:47:13.064Z,85.20
2022-11-29T21:49:40.991Z,54.33
2022-11-29T21:52:09.126Z,58.87
2022-11-29T21:54:38.377Z,82.73
2022-11-29T21:57:06.396Z,58.33
2022-11-29T21:59:34.231Z,76.20
2022-11-29T22:02:02.341Z,95.17
2022-11-29T22:04:30.394Z,62.07
2022-11-29T22:06:58.281Z,67.00
2022-11-29T22:09:26.176Z,49.17
2022-11-29T22:11:55.574Z,52.73
2022-11-29T22:14:23.734Z,52.20
2022-11-29T22:16:53.516Z,46.47
2022-11-29T22:19:22.952Z,72.60
2022-11-29T22:21:54.570Z,49.63
2022-11-29T22:24:24.416Z,45.20
2022-11-29T22:26:53.477Z,50.13
2022-11-29T22:29:23.095Z,54.40
2022-11-29T22:31:53.793Z,47.43
2022-11-29T22:34:22.901Z,47.77
2022-11-29T22:36:50.781Z,51.80
2022-11-29T22:39:18.629Z,54.73
2022-11-29T22:41:52.298Z,62.87
2022-11-29T22:44:23.585Z,63.63
2022-11-29T22:46:52.007Z,50.33
2022-11-29T22:49:20.116Z,73.03
2022-11-29T22:51:47.972Z,57.63
2022-11-29T22:54:16.501Z,66.20
2022-11-29T22:56:45.729Z,61.97
2022-11-29T22:59:13.991Z,57.70
2022-11-29T23:01:43.592Z,59.77
2022-11-29T23:04:13.099Z,57.80
2022-11-29T23:06:43.221Z,45.93
2022-11-29T23:09:15.698Z,68.07
2022-11-29T23:11:44.383Z,55.47
2022-11-29T23:14:12.512Z,53.20
2022-11-29T23:16:40.492Z,48.43
2022-11-29T23:19:10.043Z,74.10
2022-11-29T23:21:39.670Z,60.47
2022-11-29T23:24:08.244Z,87.63
2022-11-29T23:26:39.498Z,67.30
2022-11-29T23:29:09.343Z,53.00
2022-11-29T23:31:37.463Z,57.67
2022-11-29T23:34:05.660Z,70.60
2022-11-29T23:36:34.878Z,61.43
2022-11-29T23:39:05.590Z,91.20
2022-11-29T23:41:33.491Z,65.47
2022-11-29T23:44:01.358Z,104.67
2022-11-29T23:46:29.260Z,54.27
2022-11-29T23:48:57.182Z,61.23
2022-11-29T23:51:25.046Z,84.57
2022-11-29T23:53:54.906Z,73.43
2022-11-29T23:56:23.517Z,66.47
2022-11-29T23:58:51.475Z,74.67
